createdAt,value
2019-03-24T00:02:02.712Z,4.86
2019-03-24T00:04:34.801Z,4.86
2019-03-24T00:07:06.962Z,4.85
2019-03-24T00:09:40.248Z,4.82
2019-03-24T00:12:12.397Z,4.82
2019-03-24T00:14:44.475Z,4.78
2019-03-24T00:17:16.591Z,4.74
2019-03-24T00:19:48.703Z,4.80
2019-03-24T00:22:20.909Z,4.80
2019-03-24T00:24:53.061Z,4.71
2019-03-24T00:27:25.217Z,4.73
2019-03-24T00:29:58.692Z,4.68
2019-03-24T00:32:30.846Z,4.71
2019-03-24T00:35:02.955Z,4.72
2019-03-24T00:37:35.067Z,4.67
2019-03-24T00:40:07.541Z,4.69
2019-03-24T00:42:39.804Z,4.64
2019-03-24T00:45:12.100Z,4.66
2019-03-24T00:47:44.417Z,4.65
2019-03-24T00:50:25.098Z,4.66
2019-03-24T00:52:57.293Z,4.63
2019-03-24T00:55:29.416Z,4.60
2019-03-24T00:58:01.516Z,4.58
2019-03-24T01:00:46.140Z,4.50
2019-03-24T01:03:19.700Z,4.53
2019-03-24T01:05:52.341Z,4.51
2019-03-24T01:08:24.422Z,4.47
2019-03-24T01:10:56.619Z,4.45
2019-03-24T01:13:28.698Z,4.48
2019-03-24T01:16:00.750Z,4.41
2019-03-24T01:18:32.946Z,4.42
2019-03-24T01:21:05.154Z,4.36
2019-03-24T01:23:37.364Z,4.32
2019-03-24T01:26:10.572Z,4.25
2019-03-24T01:28:45.973Z,4.23
2019-03-24T01:31:18.118Z,4.22
2019-03-24T01:33:50.240Z,4.12
2019-03-24T01:36:22.350Z,4.11
2019-03-24T01:38:54.488Z,4.11
2019-03-24T01:41:26.860Z,4.10
2019-03-24T01:44:00.374Z,4.12
2019-03-24T01:46:32.561Z,4.09
2019-03-24T01:49:04.690Z,4.12
2019-03-24T01:51:36.992Z,4.20
2019-03-24T01:54:09.767Z,4.13
2019-03-24T01:56:41.967Z,4.19
2019-03-24T01:59:14.123Z,4.14
2019-03-24T02:01:46.246Z,4.14
2019-03-24T02:04:18.292Z,4.10
2019-03-24T02:06:50.485Z,4.09
2019-03-24T02:09:22.697Z,3.99
2019-03-24T02:11:54.807Z,4.04
2019-03-24T02:14:26.896Z,4.03
2019-03-24T02:16:59.355Z,4.00
2019-03-24T02:19:31.619Z,3.99
2019-03-24T02:22:03.662Z,3.96
2019-03-24T02:24:35.727Z,3.98
2019-03-24T02:27:07.870Z,4.02
2019-03-24T02:29:39.830Z,3.99
2019-03-24T02:32:11.901Z,3.92
2019-03-24T02:34:44.075Z,3.82
2019-03-24T02:37:16.269Z,3.67
2019-03-24T02:39:49.144Z,3.62
2019-03-24T02:42:21.409Z,3.44
2019-03-24T02:44:53.583Z,3.27
2019-03-24T02:47:25.740Z,3.20
2019-03-24T02:49:57.784Z,3.16
2019-03-24T02:52:29.950Z,3.21
2019-03-24T02:55:02.155Z,3.20
2019-03-24T02:57:34.351Z,3.18
2019-03-24T03:00:06.982Z,3.27
2019-03-24T03:02:39.197Z,3.16
2019-03-24T03:05:11.779Z,3.16
2019-03-24T03:07:43.933Z,3.21
2019-03-24T03:10:16.631Z,3.30
2019-03-24T03:12:48.821Z,3.19
2019-03-24T03:15:21.416Z,3.17
2019-03-24T03:17:53.636Z,3.16
2019-03-24T03:20:26.550Z,3.18
2019-03-24T03:22:58.643Z,3.23
2019-03-24T03:25:30.876Z,3.31
2019-03-24T03:28:03.058Z,3.33
2019-03-24T03:30:35.171Z,3.29
2019-03-24T03:33:07.388Z,3.19
2019-03-24T03:35:39.554Z,3.21
2019-03-24T03:38:11.670Z,3.11
2019-03-24T03:40:43.815Z,3.16
2019-03-24T03:43:15.948Z,3.23
2019-03-24T03:45:48.004Z,3.22
2019-03-24T03:48:21.214Z,3.22
2019-03-24T03:50:53.428Z,3.20
2019-03-24T03:53:25.482Z,3.16
2019-03-24T03:55:57.590Z,3.10
2019-03-24T03:58:29.681Z,3.11
2019-03-24T04:01:01.697Z,3.07
2019-03-24T04:03:33.836Z,3.02
2019-03-24T04:06:05.928Z,3.04
2019-03-24T04:08:38.063Z,3.06
2019-03-24T04:11:10.190Z,3.03
2019-03-24T04:13:42.460Z,2.82
2019-03-24T04:16:14.694Z,2.76
2019-03-24T04:18:46.897Z,2.82
2019-03-24T04:21:20.272Z,2.90
2019-03-24T04:23:52.469Z,2.90
2019-03-24T04:26:25.196Z,3.07
2019-03-24T04:28:57.959Z,3.05
2019-03-24T04:31:30.185Z,3.09
2019-03-24T04:34:02.418Z,3.20
2019-03-24T04:36:35.677Z,3.22
2019-03-24T04:39:08.543Z,3.25
2019-03-24T04:41:40.642Z,3.25
2019-03-24T04:44:12.771Z,3.36
2019-03-24T04:46:44.912Z,3.38
2019-03-24T04:49:16.996Z,3.44
2019-03-24T04:51:49.392Z,3.52
2019-03-24T04:54:22.164Z,3.53
2019-03-24T04:56:54.425Z,3.58
2019-03-24T04:59:26.714Z,3.63
2019-03-24T05:01:58.980Z,3.75
2019-03-24T05:04:31.158Z,3.74
2019-03-24T05:07:04.204Z,3.85
2019-03-24T05:09:37.593Z,3.96
2019-03-24T05:12:09.672Z,4.09
2019-03-24T05:14:41.765Z,4.24
2019-03-24T05:17:14.181Z,4.28
2019-03-24T05:19:46.193Z,4.36
2019-03-24T05:22:18.305Z,4.42
2019-03-24T05:24:50.448Z,4.48
2019-03-24T05:27:23.834Z,4.60
2019-03-24T05:29:56.503Z,4.69
2019-03-24T05:32:28.861Z,4.79
2019-03-24T05:35:01.022Z,4.88
2019-03-24T05:37:33.176Z,5.01
2019-03-24T05:40:05.508Z,5.13
2019-03-24T05:42:38.342Z,5.17
2019-03-24T05:45:10.833Z,5.28
2019-03-24T05:47:43.025Z,5.40
2019-03-24T05:50:15.407Z,5.38
2019-03-24T05:52:48.894Z,5.55
2019-03-24T05:55:21.528Z,5.74
2019-03-24T05:57:53.828Z,5.89
2019-03-24T06:00:26.633Z,6.02
2019-03-24T06:02:59.263Z,6.17
2019-03-24T06:05:31.359Z,6.36
2019-03-24T06:08:03.488Z,6.53
2019-03-24T06:10:37.878Z,6.78
2019-03-24T06:13:10.134Z,6.87
2019-03-24T06:15:44.201Z,7.01
2019-03-24T06:18:17.501Z,7.19
2019-03-24T06:20:49.753Z,7.39
2019-03-24T06:23:22.273Z,7.62
2019-03-24T06:25:58.391Z,7.77
2019-03-24T06:28:31.255Z,7.98
2019-03-24T06:31:03.959Z,8.12
2019-03-24T06:33:36.064Z,8.33
2019-03-24T06:36:09.061Z,8.51
2019-03-24T06:38:41.278Z,8.70
2019-03-24T06:41:13.576Z,8.85
2019-03-24T06:43:45.721Z,8.90
2019-03-24T06:46:18.284Z,8.87
2019-03-24T06:48:50.411Z,8.97
2019-03-24T06:51:23.172Z,9.18
2019-03-24T06:53:55.258Z,9.28
2019-03-24T06:56:28.935Z,9.34
2019-03-24T06:59:02.499Z,9.51
2019-03-24T07:01:35.612Z,9.47
2019-03-24T07:04:08.258Z,9.63
2019-03-24T07:06:41.395Z,9.62
2019-03-24T07:09:13.625Z,9.59
2019-03-24T07:11:46.384Z,9.75
2019-03-24T07:14:18.574Z,9.60
2019-03-24T07:16:50.754Z,9.75
2019-03-24T07:19:24.383Z,9.97
2019-03-24T07:21:57.249Z,9.91
2019-03-24T07:24:29.509Z,9.86
2019-03-24T07:27:02.618Z,9.93
2019-03-24T07:29:38.043Z,10.10
2019-03-24T07:32:10.782Z,10.27
2019-03-24T07:34:44.254Z,10.36
2019-03-24T07:37:17.025Z,10.45
2019-03-24T07:39:50.516Z,10.59
2019-03-24T07:42:22.768Z,10.74
2019-03-24T07:44:55.037Z,11.08
2019-03-24T07:47:27.722Z,11.08
2019-03-24T07:50:00.580Z,11.41
2019-03-24T07:52:33.236Z,11.41
2019-03-24T07:55:06.098Z,11.48
2019-03-24T07:57:38.523Z,11.49
2019-03-24T08:00:14.913Z,11.47
2019-03-24T08:02:54.948Z,11.64
2019-03-24T08:05:27.115Z,11.52
2019-03-24T08:07:59.241Z,11.52
2019-03-24T08:10:31.557Z,11.68
2019-03-24T08:13:05.159Z,11.60
2019-03-24T08:15:38.105Z,11.86
2019-03-24T08:18:10.325Z,11.86
2019-03-24T08:20:42.606Z,11.95
2019-03-24T08:23:14.792Z,12.11
2019-03-24T08:25:47.959Z,12.29
2019-03-24T08:28:20.153Z,12.65
2019-03-24T08:30:52.337Z,12.87
2019-03-24T08:33:24.515Z,12.87
2019-03-24T08:35:57.537Z,12.81
2019-03-24T08:38:29.703Z,12.79
2019-03-24T08:41:03.029Z,13.06
2019-03-24T08:43:35.279Z,13.40
2019-03-24T08:46:08.313Z,13.71
2019-03-24T08:48:41.329Z,13.67
2019-03-24T08:51:15.711Z,14.13
2019-03-24T08:53:48.062Z,13.96
2019-03-24T08:56:20.363Z,14.09
2019-03-24T08:58:52.640Z,14.13
2019-03-24T09:01:24.839Z,14.00
2019-03-24T09:03:57.658Z,13.93
2019-03-24T09:06:30.082Z,14.23
2019-03-24T09:09:04.622Z,14.54
2019-03-24T09:11:36.858Z,15.02
2019-03-24T09:14:09.258Z,15.34
2019-03-24T09:16:41.655Z,15.81
2019-03-24T09:19:14.920Z,15.17
2019-03-24T09:21:47.277Z,15.29
2019-03-24T09:24:19.525Z,15.25
2019-03-24T09:26:51.745Z,15.49
2019-03-24T09:29:23.937Z,15.44
2019-03-24T09:31:56.109Z,15.60
2019-03-24T09:34:28.863Z,15.71
2019-03-24T09:37:00.956Z,15.59
2019-03-24T09:39:33.126Z,15.63
2019-03-24T09:42:05.339Z,15.41
2019-03-24T09:44:37.693Z,15.30
2019-03-24T09:47:09.998Z,15.24
2019-03-24T09:49:42.201Z,15.33
2019-03-24T09:52:14.787Z,15.98
2019-03-24T09:54:47.031Z,16.24
2019-03-24T09:57:19.181Z,16.58
2019-03-24T09:59:51.508Z,16.61
2019-03-24T10:02:25.845Z,16.57
2019-03-24T10:04:58.636Z,15.62
2019-03-24T10:07:30.754Z,15.49
2019-03-24T10:10:02.734Z,15.54
2019-03-24T10:12:35.582Z,15.34
2019-03-24T10:15:11.067Z,14.56
2019-03-24T10:17:43.251Z,14.64
2019-03-24T10:20:15.751Z,14.82
2019-03-24T10:22:48.098Z,14.88
2019-03-24T10:25:20.523Z,15.04
2019-03-24T10:27:52.906Z,15.23
2019-03-24T10:30:25.872Z,15.09
2019-03-24T10:32:58.149Z,15.12
2019-03-24T10:35:30.821Z,14.63
2019-03-24T10:38:03.157Z,14.63
2019-03-24T10:40:35.415Z,14.84
2019-03-24T10:43:07.681Z,14.87
2019-03-24T10:45:39.971Z,14.92
2019-03-24T10:48:12.825Z,14.60
2019-03-24T10:50:45.414Z,14.48
2019-03-24T10:53:17.701Z,14.43
2019-03-24T10:55:49.734Z,15.05
2019-03-24T10:58:21.921Z,15.07
2019-03-24T11:00:55.264Z,14.86
2019-03-24T11:03:27.475Z,14.53
2019-03-24T11:06:00.453Z,14.45
2019-03-24T11:08:33.795Z,14.39
2019-03-24T11:11:07.442Z,14.41
2019-03-24T11:13:39.710Z,14.74
2019-03-24T11:16:11.845Z,14.87
2019-03-24T11:18:44.048Z,14.26
2019-03-24T11:21:16.835Z,14.36
2019-03-24T11:23:49.240Z,14.54
2019-03-24T11:26:23.589Z,14.59
2019-03-24T11:28:55.788Z,15.05
2019-03-24T11:31:27.894Z,15.45
2019-03-24T11:34:00.037Z,15.62
2019-03-24T11:36:32.266Z,15.42
2019-03-24T11:39:06.030Z,15.62
2019-03-24T11:41:39.727Z,15.77
2019-03-24T11:44:11.902Z,15.72
2019-03-24T11:46:45.558Z,15.35
2019-03-24T11:49:21.941Z,15.34
2019-03-24T11:51:55.125Z,15.18
2019-03-24T11:54:27.957Z,14.53
2019-03-24T11:57:01.044Z,14.53
2019-03-24T11:59:35.766Z,14.53
2019-03-24T12:02:08.059Z,14.38
2019-03-24T12:04:40.173Z,14.31
2019-03-24T12:07:12.918Z,14.15
2019-03-24T12:09:46.662Z,13.77
2019-03-24T12:12:21.193Z,13.75
2019-03-24T12:14:54.164Z,13.67
2019-03-24T12:17:26.944Z,13.23
2019-03-24T12:19:59.261Z,13.16
2019-03-24T12:22:32.051Z,13.05
2019-03-24T12:25:04.371Z,13.18
2019-03-24T12:27:36.658Z,13.07
2019-03-24T12:30:11.168Z,12.90
2019-03-24T12:32:44.270Z,12.77
2019-03-24T12:35:16.458Z,12.79
2019-03-24T12:37:48.713Z,12.90
2019-03-24T12:40:21.395Z,12.76
2019-03-24T12:42:53.694Z,12.34
2019-03-24T12:45:25.864Z,12.34
2019-03-24T12:48:00.260Z,12.00
2019-03-24T12:50:32.617Z,11.75
2019-03-24T12:53:04.724Z,11.55
2019-03-24T12:55:36.853Z,11.33
2019-03-24T12:58:09.042Z,11.13
2019-03-24T13:00:41.980Z,11.05
2019-03-24T13:03:14.141Z,10.34
2019-03-24T13:05:46.438Z,10.34
2019-03-24T13:08:21.947Z,10.33
2019-03-24T13:10:58.128Z,10.32
2019-03-24T13:13:30.434Z,10.45
2019-03-24T13:16:02.837Z,10.37
2019-03-24T13:18:35.038Z,10.09
2019-03-24T13:21:08.120Z,10.08
2019-03-24T13:23:40.982Z,9.90
2019-03-24T13:26:13.315Z,9.97
2019-03-24T13:28:45.625Z,9.77
2019-03-24T13:31:17.848Z,9.78
2019-03-24T13:35:39.745Z,9.81
2019-03-24T13:38:11.906Z,9.82
2019-03-24T13:40:44.195Z,9.83
2019-03-24T13:43:17.646Z,9.80
2019-03-24T13:45:49.805Z,9.86
2019-03-24T13:48:22.539Z,9.86
2019-03-24T13:50:55.528Z,9.69
2019-03-24T13:53:27.849Z,9.69
2019-03-24T13:56:00.896Z,9.39
2019-03-24T13:58:33.257Z,9.29
2019-03-24T14:01:06.473Z,9.30
2019-03-24T14:03:39.734Z,9.41
2019-03-24T14:06:12.581Z,9.25
2019-03-24T14:08:44.729Z,9.07
2019-03-24T14:11:17.015Z,8.97
2019-03-24T14:13:49.610Z,8.88
2019-03-24T14:16:22.567Z,8.89
2019-03-24T14:18:55.054Z,8.71
2019-03-24T14:21:27.235Z,8.73
2019-03-24T14:23:59.538Z,8.77
2019-03-24T14:26:35.304Z,8.67
2019-03-24T14:29:07.585Z,8.57
2019-03-24T14:31:39.780Z,8.60
2019-03-24T14:34:11.925Z,8.65
2019-03-24T14:36:45.865Z,8.76
2019-03-24T14:39:18.894Z,8.63
2019-03-24T14:41:51.305Z,8.69
2019-03-24T14:44:25.672Z,8.58
2019-03-24T14:46:58.005Z,8.57
2019-03-24T14:49:30.247Z,8.49
2019-03-24T14:52:02.543Z,8.57
2019-03-24T14:54:35.154Z,8.43
2019-03-24T14:57:07.416Z,8.40
2019-03-24T14:59:39.746Z,8.30
2019-03-24T15:02:12.036Z,8.27
2019-03-24T15:04:44.435Z,8.21
2019-03-24T15:07:16.922Z,8.13
2019-03-24T15:09:49.205Z,8.18
2019-03-24T15:12:21.544Z,8.13
2019-03-24T15:14:55.648Z,8.16
2019-03-24T15:17:27.950Z,8.06
2019-03-24T15:20:00.171Z,7.89
2019-03-24T15:22:32.636Z,7.72
2019-03-24T15:25:04.839Z,7.71
2019-03-24T15:27:37.241Z,7.75
2019-03-24T15:30:09.896Z,7.78
2019-03-24T15:32:42.063Z,7.65
2019-03-24T15:35:15.016Z,7.64
2019-03-24T15:37:47.271Z,7.58
2019-03-24T15:40:19.597Z,7.55
2019-03-24T15:42:51.812Z,7.31
2019-03-24T15:45:25.331Z,7.28
2019-03-24T15:47:57.595Z,7.23
2019-03-24T15:50:29.910Z,7.14
2019-03-24T15:53:02.258Z,7.07
2019-03-24T15:55:35.192Z,7.03
2019-03-24T15:58:07.407Z,7.01
2019-03-24T16:00:45.943Z,6.94
2019-03-24T16:03:21.591Z,6.91
2019-03-24T16:05:56.494Z,6.90
2019-03-24T16:08:29.086Z,6.87
2019-03-24T16:11:01.985Z,6.83
2019-03-24T16:13:34.342Z,6.78
2019-03-24T16:16:07.587Z,6.86
2019-03-24T16:18:39.824Z,6.80
2019-03-24T16:21:12.019Z,6.84
2019-03-24T16:23:45.381Z,6.80
2019-03-24T16:26:17.536Z,6.79
2019-03-24T16:28:49.731Z,6.89
2019-03-24T16:31:21.932Z,6.82
2019-03-24T16:33:54.140Z,6.78
2019-03-24T16:36:26.339Z,6.70
2019-03-24T16:39:03.627Z,6.61
2019-03-24T16:41:33.961Z,6.64
2019-03-24T16:44:06.258Z,6.60
2019-03-24T16:46:39.142Z,6.56
2019-03-24T16:49:11.303Z,6.48
2019-03-24T16:51:43.357Z,6.49
2019-03-24T16:54:15.737Z,6.33
2019-03-24T16:56:47.953Z,6.27
2019-03-24T16:59:20.175Z,6.25
2019-03-24T17:01:52.335Z,6.32
2019-03-24T17:04:24.585Z,6.34
2019-03-24T17:06:56.843Z,6.29
2019-03-24T17:09:29.254Z,6.35
2019-03-24T17:12:01.503Z,6.26
2019-03-24T17:14:33.671Z,6.21
2019-03-24T17:17:05.994Z,6.17
2019-03-24T17:19:39.022Z,6.11
2019-03-24T17:22:11.285Z,6.07
2019-03-24T17:24:43.468Z,6.10
2019-03-24T17:27:15.699Z,6.04
2019-03-24T17:29:47.924Z,6.05
2019-03-24T17:32:20.121Z,6.01
2019-03-24T17:34:52.559Z,6.03
2019-03-24T17:37:24.929Z,6.03
2019-03-24T17:39:57.098Z,6.01
2019-03-24T17:42:30.534Z,6.01
2019-03-24T17:45:02.747Z,6.01
2019-03-24T17:47:35.127Z,6.00
2019-03-24T17:50:08.454Z,5.95
2019-03-24T17:52:40.858Z,5.88
2019-03-24T17:55:13.423Z,5.86
2019-03-24T17:57:45.807Z,5.86
2019-03-24T18:00:20.858Z,5.92
2019-03-24T18:02:53.272Z,5.89
2019-03-24T18:05:25.653Z,5.87
2019-03-24T18:07:57.786Z,5.88
2019-03-24T18:10:29.860Z,5.84
2019-03-24T18:13:03.700Z,5.81
2019-03-24T18:15:35.800Z,5.84
2019-03-24T18:18:08.063Z,5.79
2019-03-24T18:20:40.494Z,5.83
2019-03-24T18:23:12.970Z,5.80
2019-03-24T18:25:45.340Z,5.79
2019-03-24T18:28:17.582Z,5.76
2019-03-24T18:30:50.001Z,5.74
2019-03-24T18:33:22.148Z,5.73
2019-03-24T18:35:54.411Z,5.81
2019-03-24T18:38:26.638Z,5.80
2019-03-24T18:40:58.944Z,5.79
2019-03-24T18:43:31.218Z,5.76
2019-03-24T18:46:03.559Z,5.79
2019-03-24T18:48:35.903Z,5.67
2019-03-24T18:51:08.098Z,5.66
2019-03-24T18:53:40.255Z,5.67
2019-03-24T18:56:12.570Z,5.67
2019-03-24T18:58:45.457Z,5.65
2019-03-24T19:01:17.744Z,5.63
2019-03-24T19:03:50.116Z,5.61
2019-03-24T19:06:22.318Z,5.64
2019-03-24T19:08:54.555Z,5.62
2019-03-24T19:11:27.061Z,5.61
2019-03-24T19:13:59.257Z,5.52
2019-03-24T19:16:31.499Z,5.53
2019-03-24T19:19:03.800Z,5.51
2019-03-24T19:21:36.182Z,5.52
2019-03-24T19:24:08.470Z,5.54
2019-03-24T19:26:40.678Z,5.57
2019-03-24T19:29:13.444Z,5.49
2019-03-24T19:31:45.845Z,5.44
2019-03-24T19:34:19.358Z,5.49
2019-03-24T19:36:51.635Z,5.53
2019-03-24T19:39:24.249Z,5.57
2019-03-24T19:41:56.502Z,5.55
2019-03-24T19:44:28.721Z,5.56
2019-03-24T19:47:00.914Z,5.49
2019-03-24T19:49:33.361Z,5.46
2019-03-24T19:52:05.845Z,5.46
2019-03-24T19:54:39.179Z,5.42
2019-03-24T19:57:12.679Z,5.43
2019-03-24T19:59:44.965Z,5.33
2019-03-24T20:02:17.347Z,5.33
2019-03-24T20:04:49.745Z,5.34
2019-03-24T20:07:22.003Z,5.36
2019-03-24T20:09:54.267Z,5.35
2019-03-24T20:12:26.653Z,5.35
2019-03-24T20:14:59.127Z,5.35
2019-03-24T20:17:32.017Z,5.35
2019-03-24T20:20:04.338Z,5.30
2019-03-24T20:22:36.730Z,5.28
2019-03-24T20:25:09.273Z,5.32
2019-03-24T20:27:41.590Z,5.33
2019-03-24T20:30:14.579Z,5.29
2019-03-24T20:32:46.976Z,5.27
2019-03-24T20:35:19.568Z,5.33
2019-03-24T20:37:51.917Z,5.26
2019-03-24T20:40:24.273Z,5.29
2019-03-24T20:42:57.253Z,5.30
2019-03-24T20:45:29.393Z,5.28
2019-03-24T20:48:01.794Z,5.33
2019-03-24T20:50:34.008Z,5.32
2019-03-24T20:53:17.618Z,5.28
2019-03-24T20:55:40.128Z,5.26
2019-03-24T20:58:12.404Z,5.20
2019-03-24T21:00:46.563Z,5.19
2019-03-24T21:03:19.033Z,5.25
2019-03-24T21:05:51.201Z,5.25
2019-03-24T21:08:23.868Z,5.24
2019-03-24T21:10:56.122Z,5.16
2019-03-24T21:13:28.535Z,5.13
2019-03-24T21:16:00.770Z,5.11
2019-03-24T21:18:32.843Z,5.11
2019-03-24T21:21:05.697Z,5.11
2019-03-24T21:23:37.983Z,5.11
2019-03-24T21:26:11.175Z,5.12
2019-03-24T21:28:43.615Z,5.08
2019-03-24T21:31:16.901Z,5.07
2019-03-24T21:33:49.206Z,5.10
2019-03-24T21:36:21.425Z,5.13
2019-03-24T21:38:54.994Z,5.12
2019-03-24T21:41:27.267Z,5.12
2019-03-24T21:43:59.599Z,5.14
2019-03-24T21:46:31.760Z,5.14
2019-03-24T21:49:04.562Z,5.06
2019-03-24T21:51:36.912Z,5.05
2019-03-24T21:54:08.991Z,5.13
2019-03-24T21:56:41.236Z,5.15
2019-03-24T21:59:13.589Z,5.20
2019-03-24T22:01:45.794Z,5.13
2019-03-24T22:04:17.996Z,5.13
2019-03-24T22:06:50.392Z,5.15
2019-03-24T22:09:23.874Z,5.07
2019-03-24T22:11:57.042Z,5.02
2019-03-24T22:14:29.281Z,4.99
2019-03-24T22:17:01.395Z,5.06
2019-03-24T22:19:33.997Z,5.07
2019-03-24T22:22:08.847Z,5.01
2019-03-24T22:24:41.127Z,4.99
2019-03-24T22:27:13.304Z,4.97
2019-03-24T22:29:46.364Z,4.99
2019-03-24T22:32:18.597Z,4.94
2019-03-24T22:34:50.690Z,4.97
2019-03-24T22:37:22.955Z,4.97
2019-03-24T22:39:55.180Z,5.02
2019-03-24T22:42:27.413Z,4.98
2019-03-24T22:44:59.660Z,4.91
2019-03-24T22:47:31.833Z,4.94
2019-03-24T22:50:04.244Z,4.90
2019-03-24T22:52:36.419Z,4.83
2019-03-24T22:55:09.177Z,4.91
2019-03-24T22:57:41.467Z,4.96
2019-03-24T23:00:21.311Z,4.98
2019-03-24T23:02:55.135Z,5.00
2019-03-24T23:05:27.394Z,4.98
2019-03-24T23:07:59.738Z,5.01
2019-03-24T23:10:33.305Z,5.04
2019-03-24T23:13:07.145Z,5.08
2019-03-24T23:15:39.721Z,5.06
2019-03-24T23:18:12.765Z,5.09
2019-03-24T23:20:45.090Z,5.14
2019-03-24T23:23:17.255Z,5.10
2019-03-24T23:25:51.024Z,5.13
2019-03-24T23:28:23.318Z,5.17
2019-03-24T23:30:56.472Z,5.16
2019-03-24T23:33:30.560Z,5.18
2019-03-24T23:36:04.426Z,5.25
2019-03-24T23:38:36.670Z,5.39
2019-03-24T23:41:08.944Z,5.54
2019-03-24T23:43:41.373Z,5.65
2019-03-24T23:46:14.331Z,5.67
2019-03-24T23:48:48.441Z,5.58
2019-03-24T23:51:20.658Z,5.46
2019-03-24T23:53:53.011Z,5.35
2019-03-24T23:56:27.715Z,5.20
2019-03-24T23:59:00.349Z,5.21
